Pagrindinis puslapis
METAR-TAF:

METAR-TAF

Oro uostai :

Hernando County Airport

Brooksville, Florida, Jungtinės Amerikos Valstijos

platuma: 28-28-25N, ilguma: 082-27-16W, Aukštis: 23 m

Dabartinis oras

Ataskaita buvo paskelbta 15 minutes, ne 17:53 UTC
Vėjas 9 kt iš Vakarų/Šiaurės Vakarų
Temperatūra 28°C
Drėgmė 58%
Slėgis 1014 hPa
Matomumas: 16.1 km
Mažai debesys ne aukštis 3200 ft

METAR: KBKV 171753Z 30009KT 10SM FEW032 28/19 A2994 RMK AO2 SLP137 T02780189 10283 20206 58013

Laikas: 14:08 (18:08 UTC)


TAF: trūkstamas

Orai ataskaitas ir orų prognozės (METAR, TAF).

turimą stotys yra geltonos ir raudonos taškus žemėlapyje.

Perkelti pele per norėdami pamatyti stoties vardą.

Tada spustelėkite, norėdami matyti oro stebėjimo ir prognozės.

Norėdami pakeisti žemėlapį: spustelėkite ant žalios mygtukų su juodo kryžiaus žemyn,; žalią mygtuką su brūkšneliu, jei norite nutolinti; arba žalių rodyklių gretimoms žemėlapius.


METAR-TAF: